Daytona Beach International Airport
KDAB : now visible

Airfield :











YOU CAN JOIN US ON...

 
LOGIN :

Register | Disclaimer

   EN    FR    IT 

 









Legend :    VFR   Marginal VFR   IFR   Intensive IFR   Very Intensive IFR
Visi :
Ceiling :
>= 8 km
>= 3000ft
5 to 8 km
1000 to 3000 ft
1500m to 5 km
500 to 1000 ft
800 to 1500m
200 to 500 ft
< 800m
< 200 ft
Symbols :   Thunderstorms  Fog  Heavy snow  Heavy precipitations  Wind > 20 kt






- Airport Elevation : 34 ft
- IATA code : DAB


KDAB - Daytona Beach International

CURRENT METAR :
  • 021633Z 29004KT 10SM TS FEW028 SCT035 BKN090 31/23 A3008 RMK AO2 LTG DSNT E-SW TSE28B33 OCNL LTGIC SW TS SW MOV E T03110228

EXPIRED METARs :
  • 021553Z 27007KT 10SM FEW026 SCT035 BKN120 31/23 A3008 RMK AO2 SLP186 T03110233
  • 021453Z 26006KT 10SM FEW024 SCT039 BKN049 31/23 A3008 RMK AO2 SLP187 T03060233 51007
  • 020253Z 00000KT 10SM CLR 24/23 A3008 RMK AO2 SLP184 60001 T02390228 55001

TAF COR TAF KDAB
Valid from the 02 at 16:00 until the 03 at 12:00 UTC


021630Z 0216/0312 21006KT P6SM VCTS SCT025CB SCT080 BKN250
TEMPO 0218/0222 3SM TSRA BKN025CB
FM030000 18005KT P6SM VCSH FEW040 BKN080 OVC140
FM030500 VRB03KT P6SM SCT120 BKN250
KZJX FIR / North America



MET'MAP, your aeronautical weather chart ! - Copyright ORBIFLY December 2007 - Disclaimer

ORBIFLY MET'MAP TEAM :

Programming & Development : Alexandra Zaïnal
Original concept : Baudouin d'Aumeries
Technical & hardware support : Manuel Goepfert
Assistance : Marc-Olivier Méhu




SOURCES & CREDITS :

   NOAA       Earth
Advisory